SAARSAEZ

Guest
Details From SAAR - Rosario (Islas Malvinas)
To SAEZ - Ministro Pistarini (Ezeiza)
Flight Number -
Tags decoded
Created
Modified
Stats Distance 161 nm / 298 km
Max Altitude 0 ft / 0 m
Waypoints 2
Social Downloads 0
Likes 0
Share VATSIM

Download

Looking for another format? Having issues loading an existing format? Contact us
Advertisement - Login to hide

Notes

Requested: SAAR SUMU SAEZ

Route

SAAR SAEZ

ID Type Via Altitude Latitude Longitude Leg Dist Tot Dist Heading (true) Name
O SAAR APT - 0 ft / 0 m -32.90347˚ -60.78463˚ - 0 nm - Rosario (Islas Malvinas)
O SAEZ APT - 0 ft / 0 m -34.82138˚ -58.53273˚ 160 nm 160 nm 136° / 135° Ministro Pistarini (Ezeiza)

Altitude Profile

Advertisement - Login to hide

SAAR

Details ICAO SAAR (ROS)
Name Rosario (Islas Malvinas)
Region Argentina
Timezone America/Argentina/Cordoba (UTC-3.0)
Stats Elevation 85 ft / 26 m (AMSL)
Location -32.903472° -60.784635°
Runways 1
Magnetic Variation 7.843° W

METAR

SAAR 181400Z 07014KT CAVOK 21/01 Q1022

Decode

TAF

TAF SAAR 181100Z 1812/1912 07010KT CAVOK TX25/1819Z TN16/1909Z BECMG 1905/1907 05010KT 5000 -TSRA BKN020 FEW040CB OVC050

Decode

Departure Runways

ID Width Length Bearing (true) Bearing (mag) Surface Threshold Offset Overrun Length
02 148 ft / 45 m 9,878 ft / 3,011 m 10.78° 18.62° Concrete 0 ft / 0 m 128 ft / 39 m
20 148 ft / 45 m 9,878 ft / 3,011 m 190.78° 198.62° Concrete 0 ft / 0 m 0 ft / 0 m

SAEZ

Details ICAO SAEZ (EZE)
Name Ministro Pistarini (Ezeiza)
Region Argentina
Timezone America/Argentina/Buenos_Aires (UTC-3.0)
Stats Elevation 66 ft / 20 m (AMSL)
Location -34.821380° -58.532731°
Runways 2
Magnetic Variation 8.725° W

METAR

SAEZ 181400Z 03006KT 350V050 9999 FEW043 20/09 Q1023

Decode

TAF

TAF SAEZ 181100Z 1812/1912 03010KT 9999 SCT030 TX25/1818Z TN13/1908Z BECMG 1813/1815 CAVOK BECMG 1818/1820 09010KT 9999 FEW050TCU BECMG 1900/1903 CAVOK BECMG 1906/1909 9999 SCT030 BKN070

Decode

Destination Runways

ID Width Length Bearing (true) Bearing (mag) Surface Threshold Offset Overrun Length
11 190 ft / 58 m 10,778 ft / 3,285 m 102.20° 110.93° Asphalt 0 ft / 0 m 0 ft / 0 m
17 151 ft / 46 m 9,153 ft / 2,790 m 163.98° 172.71° Asphalt 0 ft / 0 m 98 ft / 30 m
29 190 ft / 58 m 10,778 ft / 3,285 m 282.18° 290.91° Asphalt 0 ft / 0 m 115 ft / 35 m
35 151 ft / 46 m 9,153 ft / 2,790 m 343.98° 352.71° Asphalt 984 ft / 300 m 1,024 ft / 312 m

Approach Navaids

Runway Type Ident Frequency Range Bearing (true) Bearing (mag) Slope Elevation
11 Localiser PC 110.10 MHz 18 nm / 33 km 102.08° 110.80° - 66 ft / 20 m (AMSL)
11 Glidescope PC 110.10 MHz 10 nm / 19 km 102.28° 111.01° 3.00° 66 ft / 20 m (AMSL)
11 DME PC 110.10 MHz 18 nm / 33 km - - - 66 ft / 20 m (AMSL)
35 Localiser EZ 108.70 MHz 18 nm / 33 km 343.90° 352.63° - 66 ft / 20 m (AMSL)
35 Glidescope EZ 108.70 MHz 10 nm / 19 km 344.06° 352.79° 3.00° 66 ft / 20 m (AMSL)
35 DME EZ 108.70 MHz 18 nm / 33 km - - - 66 ft / 20 m (AMSL)

Popular Alternatives